createdAt,value
2017-10-27T00:00:53.501Z,9.70
2017-10-27T00:05:54.593Z,9.70
2017-10-27T00:10:56.430Z,9.80
2017-10-27T00:15:57.521Z,9.80
2017-10-27T00:20:58.611Z,10.00
2017-10-27T00:25:59.792Z,10.00
2017-10-27T00:31:00.928Z,10.00
2017-10-27T00:36:02.021Z,9.90
2017-10-27T00:41:03.132Z,9.90
2017-10-27T00:46:04.979Z,9.90
2017-10-27T00:51:06.098Z,9.90
2017-10-27T00:56:07.216Z,9.90
2017-10-27T01:01:08.373Z,9.80
2017-10-27T01:06:09.476Z,9.80
2017-10-27T01:11:10.640Z,9.80
2017-10-27T01:16:11.772Z,9.90
2017-10-27T01:21:13.633Z,9.90
2017-10-27T01:26:14.870Z,9.90
2017-10-27T01:31:15.987Z,10.00
2017-10-27T01:36:17.097Z,9.90
2017-10-27T01:41:18.205Z,10.00
2017-10-27T01:46:19.323Z,10.00
2017-10-27T01:51:20.462Z,10.00
2017-10-27T01:56:21.605Z,10.00
2017-10-27T02:01:22.791Z,9.90
2017-10-27T02:06:23.886Z,9.90
2017-10-27T02:11:25.765Z,9.90
2017-10-27T02:16:27.607Z,9.90
2017-10-27T02:21:28.701Z,9.90
2017-10-27T02:26:30.555Z,10.00
2017-10-27T02:31:31.622Z,10.00
2017-10-27T02:36:32.681Z,9.90
2017-10-27T02:41:33.766Z,9.90
2017-10-27T02:46:34.870Z,10.00
2017-10-27T02:51:35.956Z,9.90
2017-10-27T02:56:37.030Z,9.90
2017-10-27T03:01:38.847Z,10.00
2017-10-27T03:06:39.911Z,10.00
2017-10-27T03:11:40.998Z,10.10
2017-10-27T03:16:42.082Z,10.20
2017-10-27T03:21:43.930Z,10.00
2017-10-27T03:26:45.033Z,10.00
2017-10-27T03:31:46.113Z,9.90
2017-10-27T03:36:47.199Z,9.60
2017-10-27T03:41:48.285Z,9.40
2017-10-27T03:46:50.122Z,9.50
2017-10-27T03:51:51.227Z,9.50
2017-10-27T03:56:53.030Z,9.40
2017-10-27T04:01:54.114Z,9.40
2017-10-27T04:06:55.211Z,9.30
2017-10-27T04:11:57.027Z,9.50
2017-10-27T04:16:58.122Z,9.50
2017-10-27T04:22:06.160Z,9.60
2017-10-27T04:27:07.230Z,9.60
2017-10-27T04:32:09.072Z,9.50
2017-10-27T04:37:10.165Z,9.50
2017-10-27T04:42:11.986Z,9.60
2017-10-27T04:47:13.301Z,9.60
2017-10-27T04:52:15.133Z,10.00
2017-10-27T04:57:16.204Z,10.00
2017-10-27T05:02:17.287Z,10.20
2017-10-27T05:07:19.103Z,10.60
2017-10-27T05:12:20.266Z,10.60
2017-10-27T05:17:27.469Z,10.70
2017-10-27T05:22:34.565Z,10.90
2017-10-27T05:27:35.641Z,11.10
2017-10-27T05:32:36.709Z,11.10
2017-10-27T05:37:37.785Z,11.20
2017-10-27T05:42:38.856Z,11.40
2017-10-27T05:47:39.978Z,11.40
2017-10-27T05:52:41.033Z,11.50
2017-10-27T05:57:42.175Z,11.50
2017-10-27T06:02:43.254Z,11.60
2017-10-27T06:07:44.358Z,11.60
2017-10-27T06:12:45.477Z,11.60
2017-10-27T06:17:46.635Z,11.70
2017-10-27T06:22:47.691Z,11.80
2017-10-27T06:27:48.767Z,11.80
2017-10-27T06:32:49.823Z,11.90
2017-10-27T06:37:50.886Z,11.50
2017-10-27T06:42:51.953Z,11.40
2017-10-27T06:47:53.161Z,11.30
2017-10-27T06:52:54.241Z,11.20
2017-10-27T06:57:55.311Z,10.60
2017-10-27T07:02:56.405Z,10.00
2017-10-27T07:07:58.247Z,9.50
2017-10-27T07:12:59.365Z,9.40
2017-10-27T07:18:00.434Z,9.40
2017-10-27T07:23:01.560Z,9.30
2017-10-27T07:28:03.433Z,9.00
2017-10-27T07:33:05.301Z,9.00
2017-10-27T07:38:06.506Z,8.90
2017-10-27T07:43:07.634Z,8.90
2017-10-27T07:48:09.465Z,8.70
2017-10-27T07:53:10.552Z,8.70
2017-10-27T07:58:11.623Z,8.70
2017-10-27T08:03:13.499Z,8.60
2017-10-27T08:08:15.360Z,8.60
2017-10-27T08:13:16.430Z,8.50
2017-10-27T08:18:17.589Z,8.60
2017-10-27T08:23:18.658Z,8.60
2017-10-27T08:28:20.482Z,8.50
2017-10-27T08:33:21.586Z,8.50
2017-10-27T08:38:22.667Z,8.40
2017-10-27T08:43:23.736Z,8.30
2017-10-27T08:48:24.899Z,8.40
2017-10-27T08:53:25.999Z,8.50
2017-10-27T08:58:27.116Z,8.50
2017-10-27T09:03:28.207Z,8.50
2017-10-27T09:08:29.293Z,8.70
2017-10-27T09:13:30.388Z,9.10
2017-10-27T09:18:31.486Z,9.00
2017-10-27T09:23:32.610Z,8.80
2017-10-27T09:28:33.697Z,8.60
2017-10-27T09:33:34.817Z,8.60
2017-10-27T09:38:35.913Z,8.50
2017-10-27T09:43:36.990Z,8.50
2017-10-27T09:48:38.789Z,9.00
2017-10-27T09:53:39.909Z,8.90
2017-10-27T09:58:41.012Z,9.50
2017-10-27T10:03:42.821Z,10.00
2017-10-27T10:08:43.884Z,10.00
2017-10-27T10:13:45.009Z,10.30
2017-10-27T10:18:46.841Z,11.30
2017-10-27T10:23:47.938Z,11.30
2017-10-27T10:28:48.986Z,12.50
2017-10-27T10:33:50.058Z,12.70
2017-10-27T10:38:51.887Z,13.70
2017-10-27T10:43:52.990Z,13.70
2017-10-27T10:48:54.825Z,13.00
2017-10-27T10:53:55.904Z,13.00
2017-10-27T10:58:57.011Z,12.70
2017-10-27T11:03:58.066Z,12.90
2017-10-27T11:08:59.133Z,13.10
2017-10-27T11:14:00.253Z,13.60
2017-10-27T11:19:01.361Z,14.00
2017-10-27T11:24:02.456Z,13.30
2017-10-27T11:29:03.542Z,13.20
2017-10-27T11:34:05.374Z,13.50
2017-10-27T11:39:06.477Z,13.50
2017-10-27T11:44:08.293Z,14.70
2017-10-27T11:49:09.389Z,14.70
2017-10-27T11:54:10.533Z,14.10
2017-10-27T11:59:12.348Z,13.80
2017-10-27T12:04:14.181Z,14.20
2017-10-27T12:09:15.223Z,14.10
2017-10-27T12:14:16.338Z,13.60
2017-10-27T12:19:18.226Z,12.20
2017-10-27T12:24:20.078Z,12.30
2017-10-27T12:29:21.159Z,12.20
2017-10-27T12:34:22.965Z,13.00
2017-10-27T12:39:24.065Z,13.00
2017-10-27T12:44:25.145Z,13.40
2017-10-27T12:49:27.179Z,12.30
2017-10-27T12:54:28.267Z,12.30
2017-10-27T12:59:29.361Z,12.10
2017-10-27T13:04:31.248Z,11.80
2017-10-27T13:09:32.325Z,11.80
2017-10-27T13:14:33.390Z,12.60
2017-10-27T13:19:34.478Z,13.10
2017-10-27T13:24:35.553Z,13.00
2017-10-27T13:29:37.434Z,11.00
2017-10-27T13:34:39.269Z,10.90
2017-10-27T13:39:40.338Z,10.90
2017-10-27T13:44:41.420Z,10.80
2017-10-27T13:49:42.601Z,11.00
2017-10-27T13:54:44.469Z,10.50
2017-10-27T13:59:46.381Z,10.50
2017-10-27T14:04:47.618Z,10.50
2017-10-27T14:09:49.500Z,10.90
2017-10-27T14:14:50.811Z,10.90
2017-10-27T14:19:51.885Z,11.40
2017-10-27T14:24:53.126Z,11.50
2017-10-27T14:29:54.212Z,11.40
2017-10-27T14:34:55.324Z,11.30
2017-10-27T14:39:56.401Z,11.00
2017-10-27T14:44:57.506Z,11.00
2017-10-27T14:49:59.578Z,10.70
2017-10-27T14:55:00.640Z,10.70
2017-10-27T15:00:02.456Z,10.90
2017-10-27T15:05:03.574Z,10.90
2017-10-27T15:10:05.401Z,11.00
2017-10-27T15:15:06.534Z,11.00
2017-10-27T15:20:07.621Z,10.90
2017-10-27T15:25:08.783Z,10.70
2017-10-27T15:30:09.859Z,10.60
2017-10-27T15:35:11.057Z,10.40
2017-10-27T15:40:12.916Z,9.80
2017-10-27T15:45:14.015Z,9.70
2017-10-27T15:50:15.120Z,9.50
2017-10-27T15:55:16.181Z,9.20
2017-10-27T16:00:17.358Z,9.00
2017-10-27T16:05:18.451Z,8.80
2017-10-27T16:10:19.517Z,8.70
2017-10-27T16:15:20.811Z,8.90
2017-10-27T16:20:21.964Z,9.00
2017-10-27T16:25:23.333Z,8.90
2017-10-27T16:30:24.558Z,8.80
2017-10-27T16:35:43.611Z,8.60
2017-10-27T16:40:56.482Z,8.60
2017-10-27T16:51:33.745Z,8.10
2017-10-27T16:56:35.082Z,8.10
2017-10-27T17:01:43.970Z,8.00
2017-10-27T17:06:45.211Z,8.00
2017-10-27T17:11:47.170Z,8.40
2017-10-27T17:16:48.324Z,8.30
2017-10-27T17:21:50.217Z,8.80
2017-10-27T17:26:51.430Z,8.80
2017-10-27T17:31:54.649Z,8.80
2017-10-27T17:36:55.782Z,8.80
2017-10-27T17:42:03.290Z,8.80
2017-10-27T17:47:10.352Z,8.80
2017-10-27T17:52:11.529Z,8.80
2017-10-27T17:57:25.519Z,8.80
2017-10-27T18:02:39.266Z,8.80
2017-10-27T18:07:40.429Z,8.80
2017-10-27T18:12:42.362Z,8.80
2017-10-27T18:17:43.581Z,8.90
2017-10-27T18:22:48.120Z,8.80
2017-10-27T18:27:49.581Z,8.80
2017-10-27T18:33:06.312Z,8.80
2017-10-27T18:38:10.487Z,8.70
2017-10-27T18:43:11.662Z,8.70
2017-10-27T18:48:27.036Z,8.80
2017-10-27T18:53:35.873Z,8.70
2017-10-27T18:58:37.053Z,8.80
2017-10-27T19:03:46.838Z,8.80
2017-10-27T19:08:48.398Z,8.80
2017-10-27T19:13:51.651Z,8.90
2017-10-27T19:19:03.250Z,8.90
2017-10-27T19:24:06.621Z,8.80
2017-10-27T19:29:16.536Z,8.90
2017-10-27T19:34:24.481Z,8.90
2017-10-27T19:45:03.901Z,9.00
2017-10-27T19:55:47.046Z,9.00
2017-10-27T20:00:54.008Z,8.90
2017-10-27T20:06:01.667Z,9.00
2017-10-27T20:11:06.327Z,9.00
2017-10-27T20:16:09.707Z,9.00
2017-10-27T20:21:10.958Z,8.90
2017-10-27T20:26:12.151Z,8.90
2017-10-27T20:31:16.805Z,8.90
2017-10-27T20:36:26.697Z,8.90
2017-10-27T20:41:31.950Z,8.90
2017-10-27T20:46:35.185Z,8.90
2017-10-27T20:51:54.768Z,8.90
2017-10-27T20:56:57.842Z,9.00
2017-10-27T21:02:04.249Z,8.90
2017-10-27T21:07:08.931Z,8.90
2017-10-27T21:12:10.227Z,8.90
2017-10-27T21:17:11.334Z,8.80
2017-10-27T21:22:13.175Z,8.90
2017-10-27T21:27:14.990Z,8.80
2017-10-27T21:32:16.826Z,8.80
2017-10-27T21:37:17.914Z,8.80
2017-10-27T21:42:19.745Z,8.80
2017-10-27T21:47:20.808Z,8.80
2017-10-27T21:52:28.957Z,8.80
2017-10-27T21:57:30.789Z,8.80
2017-10-27T22:02:31.849Z,8.80
2017-10-27T22:07:32.917Z,8.80
2017-10-27T22:12:33.998Z,8.80
2017-10-27T22:17:35.066Z,8.80
2017-10-27T22:22:36.147Z,8.70
2017-10-27T22:27:38.021Z,8.70
2017-10-27T22:32:39.816Z,8.70
2017-10-27T22:37:40.881Z,8.60
2017-10-27T22:42:41.973Z,8.70
2017-10-27T22:47:43.040Z,8.60
2017-10-27T22:52:44.105Z,8.60
2017-10-27T22:57:45.177Z,8.60
2017-10-27T23:02:46.234Z,8.50
2017-10-27T23:07:53.558Z,8.50
2017-10-27T23:12:54.617Z,8.60
2017-10-27T23:17:56.413Z,8.50
2017-10-27T23:22:57.497Z,8.50
2017-10-27T23:27:58.546Z,8.50
2017-10-27T23:32:59.597Z,8.50
2017-10-27T23:38:00.677Z,8.50
2017-10-27T23:43:01.765Z,8.50
2017-10-27T23:48:02.823Z,8.50
2017-10-27T23:53:03.906Z,8.50
2017-10-27T23:58:05.682Z,8.50
